createdAt,value
2019-03-15T00:01:39.764Z,99472.44
2019-03-15T00:04:07.991Z,99480.23
2019-03-15T00:06:36.199Z,99467.63
2019-03-15T00:09:07.677Z,99485.72
2019-03-15T00:11:35.917Z,99484.39
2019-03-15T00:14:04.185Z,99495.82
2019-03-15T00:16:32.404Z,99484.86
2019-03-15T00:19:00.612Z,99501.13
2019-03-15T00:21:28.854Z,99509.25
2019-03-15T00:23:57.062Z,99501.13
2019-03-15T00:26:25.272Z,99526.70
2019-03-15T00:28:53.478Z,99509.09
2019-03-15T00:31:21.684Z,99520.75
2019-03-15T00:33:50.673Z,99516.58
2019-03-15T00:36:18.878Z,99522.91
2019-03-15T00:38:47.109Z,99534.89
2019-03-15T00:41:15.317Z,99520.28
2019-03-15T00:43:43.540Z,99492.61
2019-03-15T00:46:11.742Z,99522.48
2019-03-15T00:48:39.959Z,99539.25
2019-03-15T00:51:08.195Z,99546.39
2019-03-15T00:53:36.404Z,99557.20
2019-03-15T00:56:04.618Z,99549.72
2019-03-15T00:58:32.826Z,99560.50
2019-03-15T01:01:01.030Z,99564.15
2019-03-15T01:03:29.238Z,99560.01
2019-03-15T01:05:57.546Z,99573.11
2019-03-15T01:08:25.775Z,99571.59
2019-03-15T01:10:53.976Z,99585.86
2019-03-15T01:13:22.191Z,99596.48
2019-03-15T01:15:50.411Z,99593.98
2019-03-15T01:18:18.650Z,99592.77
2019-03-15T01:20:46.832Z,99590.64
2019-03-15T01:23:15.042Z,99592.31
2019-03-15T01:25:43.292Z,99592.31
2019-03-15T01:28:11.494Z,99603.28
2019-03-15T01:30:39.705Z,99603.92
2019-03-15T01:33:07.921Z,99607.07
2019-03-15T01:35:36.125Z,99620.54
2019-03-15T01:38:04.358Z,99614.39
2019-03-15T01:40:32.564Z,99630.14
2019-03-15T01:43:00.804Z,99634.17
2019-03-15T01:45:29.003Z,99639.28
2019-03-15T01:47:57.203Z,99642.13
2019-03-15T01:50:25.422Z,99641.64
2019-03-15T01:52:53.631Z,99641.98
2019-03-15T01:55:21.862Z,99645.81
2019-03-15T01:57:50.069Z,99646.66
2019-03-15T02:00:18.293Z,99645.78
2019-03-15T02:02:46.964Z,99641.68
2019-03-15T02:05:15.172Z,99617.16
2019-03-15T02:07:43.397Z,99656.59
2019-03-15T02:10:11.599Z,99657.58
2019-03-15T02:12:39.827Z,99660.69
2019-03-15T02:15:10.713Z,99672.79
2019-03-15T02:17:39.077Z,99669.00
2019-03-15T02:20:08.351Z,99677.45
2019-03-15T02:22:36.558Z,99683.85
2019-03-15T02:25:05.134Z,99671.75
2019-03-15T02:27:33.347Z,99688.81
2019-03-15T02:30:01.562Z,99677.66
2019-03-15T02:32:29.778Z,99689.10
2019-03-15T02:34:57.991Z,99677.75
2019-03-15T02:37:26.191Z,99690.83
2019-03-15T02:39:54.432Z,99689.70
2019-03-15T02:42:22.658Z,99690.97
2019-03-15T02:44:50.850Z,99692.65
2019-03-15T02:47:19.641Z,99690.19
2019-03-15T02:49:48.347Z,99697.76
2019-03-15T02:52:17.125Z,99706.76
2019-03-15T02:54:45.350Z,99682.41
2019-03-15T02:57:13.565Z,99714.77
2019-03-15T02:59:41.808Z,99711.48
2019-03-15T03:02:10.067Z,99716.64
2019-03-15T03:04:38.362Z,99723.10
2019-03-15T03:07:06.597Z,99719.95
2019-03-15T03:09:34.813Z,99727.77
2019-03-15T03:12:03.030Z,99720.30
2019-03-15T03:14:31.250Z,99715.87
2019-03-15T03:16:59.472Z,99730.82
2019-03-15T03:19:28.218Z,99723.88
2019-03-15T03:21:56.580Z,99715.42
2019-03-15T03:24:24.878Z,99715.08
2019-03-15T03:26:53.080Z,99718.08
2019-03-15T03:29:21.819Z,99709.47
2019-03-15T03:31:50.497Z,99714.14
2019-03-15T03:34:18.686Z,99722.11
2019-03-15T03:36:47.386Z,99717.59
2019-03-15T03:39:15.600Z,99678.34
2019-03-15T03:41:43.804Z,99726.69
2019-03-15T03:44:12.062Z,99726.00
2019-03-15T03:46:40.270Z,99724.13
2019-03-15T03:49:08.507Z,99728.61
2019-03-15T03:51:36.717Z,99730.42
2019-03-15T03:54:05.038Z,99720.15
2019-03-15T03:56:33.238Z,99726.44
2019-03-15T03:59:01.466Z,99730.42
2019-03-15T04:01:29.712Z,99729.15
2019-03-15T04:03:57.951Z,99731.45
2019-03-15T04:06:26.359Z,99727.13
2019-03-15T04:08:54.570Z,99728.41
2019-03-15T04:11:22.792Z,99727.61
2019-03-15T04:13:51.044Z,99730.41
2019-03-15T04:16:19.240Z,99727.42
2019-03-15T04:18:47.539Z,99730.21
2019-03-15T04:21:15.759Z,99737.39
2019-03-15T04:23:44.001Z,99738.23
2019-03-15T04:26:12.217Z,99743.84
2019-03-15T04:28:40.430Z,99743.84
2019-03-15T04:31:08.639Z,99743.48
2019-03-15T04:33:36.917Z,99749.29
2019-03-15T04:36:05.086Z,99750.91
2019-03-15T04:38:33.290Z,99757.41
2019-03-15T04:41:01.511Z,99757.06
2019-03-15T04:43:29.723Z,99757.00
2019-03-15T04:45:57.944Z,99762.72
2019-03-15T04:48:26.162Z,99769.06
2019-03-15T04:50:54.376Z,99772.08
2019-03-15T04:53:22.594Z,99766.13
2019-03-15T04:55:50.802Z,99767.70
2019-03-15T04:58:19.003Z,99762.39
2019-03-15T05:00:47.660Z,99771.07
2019-03-15T05:03:15.867Z,99707.52
2019-03-15T05:05:44.102Z,99770.63
2019-03-15T05:08:12.310Z,99772.30
2019-03-15T05:10:40.532Z,99782.23
2019-03-15T05:13:08.758Z,99770.43
2019-03-15T05:15:36.960Z,99764.97
2019-03-15T05:18:05.170Z,99766.42
2019-03-15T05:20:33.403Z,99763.92
2019-03-15T05:23:01.608Z,99770.85
2019-03-15T05:25:30.133Z,99767.22
2019-03-15T05:27:58.599Z,99773.86
2019-03-15T05:30:26.804Z,99774.00
2019-03-15T05:32:55.028Z,99774.05
2019-03-15T05:35:23.246Z,99768.74
2019-03-15T05:37:51.451Z,99763.30
2019-03-15T05:40:19.686Z,99767.08
2019-03-15T05:42:47.931Z,99766.45
2019-03-15T05:45:16.136Z,99761.28
2019-03-15T05:47:44.374Z,99774.27
2019-03-15T05:50:12.932Z,99776.28
2019-03-15T05:52:41.141Z,99769.84
2019-03-15T05:55:14.067Z,99780.02
2019-03-15T05:57:42.266Z,99775.20
2019-03-15T06:00:15.416Z,99756.11
2019-03-15T06:02:43.634Z,99763.09
2019-03-15T06:05:11.847Z,99757.50
2019-03-15T06:07:40.091Z,99758.78
2019-03-15T06:10:13.229Z,99752.53
2019-03-15T06:12:41.447Z,99752.83
2019-03-15T06:15:10.927Z,99761.68
2019-03-15T06:17:39.144Z,99759.70
2019-03-15T06:20:13.656Z,99764.37
2019-03-15T06:22:41.877Z,99754.89
2019-03-15T06:25:11.144Z,99759.06
2019-03-15T06:27:39.372Z,99759.06
2019-03-15T06:30:13.156Z,99753.60
2019-03-15T06:32:41.377Z,99757.45
2019-03-15T06:35:09.602Z,99765.16
2019-03-15T06:37:37.862Z,99763.26
2019-03-15T06:40:08.420Z,99756.46
2019-03-15T06:42:36.651Z,99747.39
2019-03-15T06:45:13.224Z,99743.40
2019-03-15T06:47:43.145Z,99744.92
2019-03-15T06:50:11.375Z,99747.23
2019-03-15T06:52:39.587Z,99741.27
2019-03-15T06:55:08.530Z,99756.95
2019-03-15T06:57:36.758Z,99747.58
2019-03-15T07:00:08.169Z,99745.61
2019-03-15T07:02:36.386Z,99747.81
2019-03-15T07:05:06.345Z,99766.28
2019-03-15T07:07:34.683Z,99585.06
2019-03-15T07:10:02.972Z,99747.21
2019-03-15T07:12:31.193Z,99748.54
2019-03-15T07:14:59.412Z,99750.70
2019-03-15T07:17:27.667Z,99743.56
2019-03-15T07:19:55.844Z,99736.05
2019-03-15T07:22:24.075Z,99746.72
2019-03-15T07:24:52.297Z,99738.06
2019-03-15T07:27:20.510Z,99731.27
2019-03-15T07:29:48.725Z,99735.14
2019-03-15T07:32:16.932Z,99737.98
2019-03-15T07:34:45.158Z,99733.02
2019-03-15T07:37:13.373Z,99717.73
2019-03-15T07:39:41.629Z,99719.41
2019-03-15T07:42:09.847Z,99719.41
2019-03-15T07:44:38.098Z,99708.68
2019-03-15T07:47:06.302Z,99710.66
2019-03-15T07:49:34.586Z,99706.73
2019-03-15T07:52:03.916Z,99624.02
2019-03-15T07:54:37.977Z,99695.59
2019-03-15T07:57:02.282Z,99699.09
2019-03-15T07:59:30.522Z,99711.03
2019-03-15T08:01:58.749Z,99715.73
2019-03-15T08:04:26.953Z,99700.44
2019-03-15T08:06:55.170Z,99705.77
2019-03-15T08:09:23.394Z,99706.94
2019-03-15T08:11:51.601Z,99702.77
2019-03-15T08:14:19.825Z,99694.52
2019-03-15T08:16:48.895Z,99699.14
2019-03-15T08:19:17.109Z,99670.19
2019-03-15T08:21:45.324Z,99563.75
2019-03-15T08:24:13.538Z,99694.68
2019-03-15T08:26:41.878Z,99695.87
2019-03-15T08:29:10.218Z,99691.34
2019-03-15T08:31:38.376Z,99692.69
2019-03-15T08:34:06.596Z,99699.88
2019-03-15T08:36:34.824Z,99707.58
2019-03-15T08:39:03.410Z,99703.76
2019-03-15T08:41:31.611Z,99687.63
2019-03-15T08:43:59.865Z,99690.13
2019-03-15T08:46:28.135Z,99686.11
2019-03-15T08:48:56.352Z,99688.48
2019-03-15T08:51:24.571Z,99684.67
2019-03-15T08:53:52.779Z,99675.84
2019-03-15T08:56:20.989Z,99653.23
2019-03-15T08:58:49.195Z,99674.38
2019-03-15T09:01:17.510Z,99658.91
2019-03-15T09:03:45.822Z,99660.25
2019-03-15T09:06:14.037Z,99655.59
2019-03-15T09:08:42.256Z,99647.59
2019-03-15T09:11:10.465Z,99636.42
2019-03-15T09:13:38.681Z,99650.58
2019-03-15T09:16:06.897Z,99637.77
2019-03-15T09:18:35.103Z,99638.44
2019-03-15T09:21:03.317Z,99610.95
2019-03-15T09:23:31.527Z,99604.30
2019-03-15T09:25:59.773Z,99597.45
2019-03-15T09:28:27.974Z,99616.12
2019-03-15T09:30:56.199Z,99633.94
2019-03-15T09:33:24.439Z,99621.80
2019-03-15T09:35:52.661Z,99597.11
2019-03-15T09:38:20.878Z,99595.28
2019-03-15T09:40:49.493Z,99599.77
2019-03-15T09:43:17.717Z,99588.61
2019-03-15T09:45:45.930Z,99591.11
2019-03-15T09:48:14.167Z,99575.95
2019-03-15T09:50:51.024Z,99561.58
2019-03-15T09:53:12.314Z,99553.91
2019-03-15T09:55:40.529Z,99539.41
2019-03-15T09:58:08.736Z,99529.08
2019-03-15T10:00:37.007Z,99516.49
2019-03-15T10:03:05.196Z,99516.49
2019-03-15T10:05:33.400Z,99517.16
2019-03-15T10:08:01.609Z,99506.01
2019-03-15T10:10:29.824Z,99496.67
2019-03-15T10:13:05.955Z,99496.18
2019-03-15T10:15:27.987Z,99499.89
2019-03-15T10:17:56.191Z,99492.85
2019-03-15T10:20:24.408Z,99474.69
2019-03-15T10:23:05.567Z,99471.92
2019-03-15T10:25:22.580Z,99471.30
2019-03-15T10:27:50.788Z,99465.45
2019-03-15T10:30:20.942Z,99442.97
2019-03-15T10:32:49.898Z,99371.52
2019-03-15T10:35:18.200Z,99431.32
2019-03-15T10:37:46.406Z,99417.16
2019-03-15T10:40:19.784Z,99409.50
2019-03-15T10:42:48.032Z,99416.00
2019-03-15T10:45:16.242Z,99393.67
2019-03-15T10:47:44.454Z,99393.05
2019-03-15T10:50:14.407Z,99393.05
2019-03-15T10:52:42.627Z,99374.88
2019-03-15T10:55:10.906Z,99356.56
2019-03-15T10:57:39.112Z,99350.55
2019-03-15T11:00:18.027Z,99344.91
2019-03-15T11:02:46.255Z,99342.75
2019-03-15T11:05:14.465Z,99339.66
2019-03-15T11:07:42.692Z,99344.15
2019-03-15T11:10:11.675Z,99318.91
2019-03-15T11:12:39.875Z,99321.42
2019-03-15T11:15:10.431Z,99304.75
2019-03-15T11:17:38.757Z,99306.98
2019-03-15T11:20:09.090Z,99307.81
2019-03-15T11:22:37.354Z,99294.36
2019-03-15T11:25:07.380Z,99288.19
2019-03-15T11:27:35.676Z,99284.02
2019-03-15T11:30:05.090Z,99272.22
2019-03-15T11:32:33.304Z,99263.80
2019-03-15T11:35:01.638Z,99265.46
2019-03-15T11:37:29.857Z,99262.52
2019-03-15T11:39:58.096Z,99259.36
2019-03-15T11:42:26.317Z,99249.55
2019-03-15T11:44:54.522Z,99246.55
2019-03-15T11:47:22.747Z,99242.61
2019-03-15T11:49:50.961Z,99222.82
2019-03-15T11:52:19.176Z,99234.63
2019-03-15T11:54:49.854Z,99231.51
2019-03-15T11:57:17.346Z,99216.32
2019-03-15T11:59:45.704Z,99207.56
2019-03-15T12:02:14.077Z,99201.20
2019-03-15T12:04:42.300Z,99200.75
2019-03-15T12:07:10.691Z,99190.44
2019-03-15T12:09:40.958Z,99184.41
2019-03-15T12:12:08.889Z,99195.92
2019-03-15T12:14:41.244Z,99180.91
2019-03-15T12:17:07.045Z,99164.93
2019-03-15T12:19:35.301Z,99156.47
2019-03-15T12:22:06.565Z,99160.99
2019-03-15T12:24:33.449Z,99153.30
2019-03-15T12:27:01.664Z,99139.83
2019-03-15T12:29:29.899Z,99154.79
2019-03-15T12:31:58.122Z,99139.15
2019-03-15T12:34:26.326Z,99155.37
2019-03-15T12:36:54.533Z,99141.57
2019-03-15T12:39:22.747Z,99140.16
2019-03-15T12:41:50.954Z,99138.13
2019-03-15T12:44:19.163Z,99125.98
2019-03-15T12:46:47.454Z,99132.55
2019-03-15T12:49:15.686Z,99103.73
2019-03-15T12:51:43.885Z,99122.53
2019-03-15T12:54:12.097Z,99113.60
2019-03-15T12:56:52.863Z,99132.95
2019-03-15T12:59:10.249Z,99136.02
2019-03-15T13:01:38.537Z,99130.79
2019-03-15T13:04:06.687Z,99132.56
2019-03-15T13:06:34.932Z,99141.84
2019-03-15T13:09:03.643Z,99122.03
2019-03-15T13:11:31.864Z,99131.09
2019-03-15T13:14:00.081Z,99124.90
2019-03-15T13:16:28.356Z,99065.00
2019-03-15T13:18:56.575Z,99115.26
2019-03-15T13:21:24.855Z,99114.98
2019-03-15T13:23:53.071Z,99116.75
2019-03-15T13:26:21.281Z,99111.13
2019-03-15T13:28:49.489Z,99114.80
2019-03-15T13:31:17.724Z,99110.45
2019-03-15T13:33:45.937Z,99115.66
2019-03-15T13:36:14.208Z,99105.82
2019-03-15T13:38:42.428Z,99120.02
2019-03-15T13:41:10.644Z,99118.07
2019-03-15T13:43:38.861Z,99119.97
2019-03-15T13:46:07.080Z,99125.85
2019-03-15T13:48:35.289Z,99114.33
2019-03-15T13:51:03.509Z,99130.20
2019-03-15T13:53:31.729Z,99128.43
2019-03-15T13:55:59.949Z,99129.05
2019-03-15T13:58:28.161Z,99127.25
2019-03-15T14:00:56.376Z,99140.75
2019-03-15T14:03:24.599Z,99133.41
2019-03-15T14:05:52.821Z,99090.19
2019-03-15T14:08:21.142Z,99123.05
2019-03-15T14:10:49.949Z,99133.63
2019-03-15T14:13:18.147Z,99148.08
2019-03-15T14:15:46.363Z,99185.56
2019-03-15T14:18:14.608Z,99167.03
2019-03-15T14:20:42.814Z,99152.95
2019-03-15T14:23:11.041Z,99171.17
2019-03-15T14:25:39.279Z,99183.68
2019-03-15T14:28:07.510Z,99168.52
2019-03-15T14:30:36.584Z,99184.21
2019-03-15T14:33:04.802Z,99195.63
2019-03-15T14:35:33.019Z,99192.25
2019-03-15T14:38:01.540Z,99183.95
2019-03-15T14:40:29.915Z,99190.81
2019-03-15T14:42:59.888Z,99192.64
2019-03-15T14:45:28.707Z,99214.83
2019-03-15T14:47:58.054Z,99194.35
2019-03-15T14:50:29.188Z,99198.84
2019-03-15T14:52:57.432Z,99205.55
2019-03-15T14:55:25.637Z,99205.55
2019-03-15T14:57:53.860Z,99218.52
2019-03-15T15:00:22.079Z,99243.06
2019-03-15T15:02:50.286Z,99219.41
2019-03-15T15:05:18.552Z,99200.22
2019-03-15T15:07:46.791Z,99233.58
2019-03-15T15:10:16.023Z,99234.80
2019-03-15T15:12:44.247Z,99231.25
2019-03-15T15:15:14.558Z,99222.98
2019-03-15T15:17:43.374Z,99230.86
2019-03-15T15:20:12.315Z,99241.64
2019-03-15T15:22:40.536Z,99232.36
2019-03-15T15:25:16.082Z,99214.95
2019-03-15T15:27:44.341Z,99232.14
2019-03-15T15:30:14.332Z,99263.63
2019-03-15T15:32:42.578Z,99233.22
2019-03-15T15:35:28.478Z,99222.20
2019-03-15T15:37:56.700Z,99221.25
2019-03-15T15:40:24.955Z,99244.84
2019-03-15T15:42:53.179Z,99252.02
2019-03-15T15:45:21.820Z,99240.42
2019-03-15T15:47:50.034Z,99234.97
2019-03-15T15:50:18.261Z,99240.45
2019-03-15T15:52:46.470Z,99246.47
2019-03-15T15:55:15.737Z,99250.23
2019-03-15T15:57:43.978Z,99234.43
2019-03-15T16:00:16.370Z,99238.25
2019-03-15T16:02:44.583Z,99253.79
2019-03-15T16:05:12.804Z,99260.34
2019-03-15T16:07:41.099Z,99257.83
2019-03-15T16:10:12.561Z,99259.05
2019-03-15T16:12:40.795Z,99268.05
2019-03-15T16:15:11.343Z,99254.50
2019-03-15T16:17:39.539Z,99259.02
2019-03-15T16:20:09.719Z,99263.13
2019-03-15T16:22:38.121Z,99271.05
2019-03-15T16:25:10.576Z,99304.71
2019-03-15T16:27:38.788Z,99271.36
2019-03-15T16:30:10.258Z,99293.17
2019-03-15T16:32:38.514Z,99296.35
2019-03-15T16:35:09.359Z,99296.06
2019-03-15T16:37:37.570Z,99287.15
2019-03-15T16:40:08.504Z,99313.70
2019-03-15T16:42:36.811Z,99327.77
2019-03-15T16:45:16.415Z,99312.53
2019-03-15T16:47:44.626Z,99305.56
2019-03-15T16:50:13.412Z,99290.73
2019-03-15T16:52:41.655Z,99305.48
2019-03-15T16:55:11.378Z,99332.22
2019-03-15T16:57:39.593Z,99300.56
2019-03-15T17:00:14.583Z,99319.80
2019-03-15T17:02:42.805Z,99311.31
2019-03-15T17:05:12.294Z,99316.83
2019-03-15T17:07:40.506Z,99318.02
2019-03-15T17:10:16.475Z,99319.25
2019-03-15T17:12:44.766Z,99336.77
2019-03-15T17:15:15.164Z,99321.77
2019-03-15T17:17:43.388Z,99351.78
2019-03-15T17:20:12.088Z,99313.28
2019-03-15T17:22:40.292Z,99328.83
2019-03-15T17:25:11.113Z,99354.65
2019-03-15T17:27:39.338Z,99365.22
2019-03-15T17:30:12.933Z,99379.73
2019-03-15T17:32:41.145Z,99379.73
2019-03-15T17:35:13.916Z,99377.06
2019-03-15T17:37:42.422Z,99389.77
2019-03-15T17:40:12.865Z,99394.42
2019-03-15T17:42:41.071Z,99395.91
2019-03-15T17:45:09.629Z,99418.91
2019-03-15T17:47:37.865Z,99414.83
2019-03-15T17:50:09.468Z,99419.98
2019-03-15T17:52:37.717Z,99408.66
2019-03-15T17:55:06.610Z,99419.83
2019-03-15T17:57:35.722Z,99443.98
2019-03-15T18:00:09.903Z,99447.98
2019-03-15T18:02:38.112Z,99477.80
2019-03-15T18:05:08.062Z,99441.03
2019-03-15T18:07:36.309Z,99457.50
2019-03-15T18:10:06.900Z,99457.87
2019-03-15T18:12:35.119Z,99458.22
2019-03-15T18:15:04.003Z,99468.34
2019-03-15T18:17:32.226Z,99461.72
2019-03-15T18:20:00.607Z,99464.72
2019-03-15T18:22:28.850Z,99466.22
2019-03-15T18:24:57.084Z,99469.05
2019-03-15T18:27:25.415Z,99463.06
2019-03-15T18:29:53.681Z,99473.55
2019-03-15T18:32:22.906Z,99493.70
2019-03-15T18:34:51.112Z,99460.60
2019-03-15T18:37:19.325Z,99482.08
2019-03-15T18:39:47.635Z,99490.70
2019-03-15T18:42:15.848Z,99481.88
2019-03-15T18:44:44.051Z,99501.89
2019-03-15T18:47:12.265Z,99509.02
2019-03-15T18:49:40.498Z,99519.68
2019-03-15T18:52:08.706Z,99511.52
2019-03-15T18:54:38.107Z,99524.17
2019-03-15T18:57:06.431Z,99523.34
2019-03-15T18:59:39.995Z,99534.36
2019-03-15T19:02:04.576Z,99543.19
2019-03-15T19:04:32.775Z,99542.16
2019-03-15T19:07:01.005Z,99537.03
2019-03-15T19:09:29.335Z,99570.33
2019-03-15T19:11:57.555Z,99538.20
2019-03-15T19:14:25.770Z,99549.02
2019-03-15T19:16:53.995Z,99549.52
2019-03-15T19:19:23.260Z,99561.67
2019-03-15T19:21:51.485Z,99559.01
2019-03-15T19:24:19.694Z,99564.83
2019-03-15T19:26:47.984Z,99562.67
2019-03-15T19:29:16.200Z,99585.14
2019-03-15T19:31:44.430Z,99585.14
2019-03-15T19:34:12.661Z,99601.30
2019-03-15T19:36:40.870Z,99597.96
2019-03-15T19:39:09.096Z,99591.63
2019-03-15T19:41:37.328Z,99596.16
2019-03-15T19:44:05.744Z,99606.63
2019-03-15T19:46:34.073Z,99604.28
2019-03-15T19:49:02.317Z,99604.95
2019-03-15T19:51:30.532Z,99617.77
2019-03-15T19:53:58.750Z,99616.94
2019-03-15T19:56:26.974Z,99629.11
2019-03-15T19:58:55.184Z,99614.79
2019-03-15T20:01:23.593Z,99632.78
2019-03-15T20:03:51.799Z,99632.28
2019-03-15T20:06:20.036Z,99623.43
2019-03-15T20:08:48.259Z,99627.09
2019-03-15T20:11:16.493Z,99637.58
2019-03-15T20:13:44.700Z,99637.08
2019-03-15T20:16:12.917Z,99651.57
2019-03-15T20:18:41.142Z,99650.08
2019-03-15T20:21:09.391Z,99654.72
2019-03-15T20:23:37.602Z,99664.72
2019-03-15T20:26:05.807Z,99667.20
2019-03-15T20:28:35.115Z,99675.05
2019-03-15T20:31:03.328Z,99671.87
2019-03-15T20:33:31.538Z,99691.83
2019-03-15T20:35:59.769Z,99681.33
2019-03-15T20:38:27.992Z,99692.48
2019-03-15T20:40:56.199Z,99686.86
2019-03-15T20:43:24.405Z,99686.64
2019-03-15T20:45:52.614Z,99691.47
2019-03-15T20:48:20.823Z,99698.46
2019-03-15T20:50:50.021Z,99700.80
2019-03-15T20:53:18.220Z,99706.95
2019-03-15T20:55:47.418Z,99690.63
2019-03-15T20:58:15.701Z,99731.23
2019-03-15T21:00:43.928Z,99710.12
2019-03-15T21:03:12.143Z,99710.93
2019-03-15T21:05:40.356Z,99728.39
2019-03-15T21:08:08.581Z,99730.88
2019-03-15T21:10:36.788Z,99732.03
2019-03-15T21:13:05.003Z,99732.52
2019-03-15T21:15:33.212Z,99743.83
2019-03-15T21:18:01.426Z,99745.00
2019-03-15T21:20:29.658Z,99737.52
2019-03-15T21:22:57.877Z,99763.29
2019-03-15T21:25:26.094Z,99757.32
2019-03-15T21:27:55.484Z,99765.63
2019-03-15T21:30:27.686Z,99773.45
2019-03-15T21:32:55.872Z,99757.92
2019-03-15T21:35:24.361Z,99781.94
2019-03-15T21:37:52.583Z,99782.92
2019-03-15T21:40:21.961Z,99780.94
2019-03-15T21:42:50.176Z,99798.73
2019-03-15T21:45:18.569Z,99780.11
2019-03-15T21:47:46.778Z,99783.26
2019-03-15T21:50:19.474Z,99815.20
2019-03-15T21:52:47.648Z,99827.87
2019-03-15T21:55:15.869Z,99822.51
2019-03-15T21:57:44.097Z,99825.85
2019-03-15T22:00:17.280Z,99822.84
2019-03-15T22:02:45.490Z,99828.17
2019-03-15T22:05:13.708Z,99824.02
2019-03-15T22:07:41.926Z,99823.72
2019-03-15T22:10:13.833Z,99829.35
2019-03-15T22:12:42.115Z,99828.52
2019-03-15T22:15:13.703Z,99822.54
2019-03-15T22:17:42.023Z,99830.87
2019-03-15T22:20:17.832Z,99830.19
2019-03-15T22:22:46.037Z,99843.84
2019-03-15T22:25:14.251Z,99843.50
2019-03-15T22:27:42.463Z,99844.48
2019-03-15T22:30:12.883Z,99850.80
2019-03-15T22:32:41.113Z,99856.16
2019-03-15T22:35:09.303Z,99859.81
2019-03-15T22:37:37.524Z,99855.47
2019-03-15T22:40:10.682Z,99869.78
2019-03-15T22:42:38.902Z,99875.29
2019-03-15T22:45:11.657Z,99883.58
2019-03-15T22:47:39.890Z,99882.25
2019-03-15T22:50:09.705Z,99882.74
2019-03-15T22:52:37.964Z,99894.38
2019-03-15T22:55:08.224Z,99874.04
2019-03-15T22:57:36.436Z,99864.72
2019-03-15T23:00:13.661Z,99878.87
2019-03-15T23:02:41.911Z,99889.48
2019-03-15T23:05:10.127Z,99890.16
2019-03-15T23:07:38.331Z,99876.02
2019-03-15T23:10:08.687Z,99885.14
2019-03-15T23:12:36.942Z,99896.96
2019-03-15T23:15:07.612Z,99919.25
2019-03-15T23:17:36.051Z,99904.95
2019-03-15T23:20:08.661Z,99927.92
2019-03-15T23:22:36.870Z,99925.25
2019-03-15T23:25:06.616Z,99913.58
2019-03-15T23:27:34.847Z,99938.33
2019-03-15T23:30:03.116Z,99940.84
2019-03-15T23:32:31.334Z,99942.62
2019-03-15T23:34:59.572Z,99943.80
2019-03-15T23:37:27.812Z,99946.16
2019-03-15T23:39:56.067Z,99953.75
2019-03-15T23:42:24.282Z,99954.39
2019-03-15T23:44:52.522Z,99950.20
2019-03-15T23:47:20.872Z,99958.03
2019-03-15T23:49:49.079Z,99956.72
2019-03-15T23:52:17.330Z,99970.80
2019-03-15T23:54:45.574Z,99974.09
2019-03-15T23:57:13.801Z,99961.63
2019-03-15T23:59:42.012Z,99970.95
